Time;durP1;ratioP1;P1;durP2;ratioP2;P2;SDS_P1;SDS_P2;PMS_P1;PMS_P2;Temp;Humidity;BMP_temperature;BMP_pressure;BME280_temperature;BME280_humidity;BME280_pressure;Samples;Min_cycle;Max_cycle;Signal;HPM_P1;HPM_P2
2022/12/24 00:01:11;;;;;;;269.30;140.02;;;2.30;99.90;;;;;;5034604;28;20060;-70
2022/12/24 00:03:41;;;;;;;273.08;137.32;;;2.30;99.90;;;;;;5017515;28;20076;-74
2022/12/24 00:06:16;;;;;;;279.13;138.70;;;2.40;99.90;;;;;;5017001;28;20053;-74
2022/12/24 00:08:43;;;;;;;255.68;132.25;;;2.30;99.90;;;;;;5035150;28;20053;-73
2022/12/24 00:11:10;;;;;;;259.75;131.13;;;2.20;99.90;;;;;;5034882;28;20069;-71
2022/12/24 00:13:38;;;;;;;262.40;130.18;;;2.10;99.90;;;;;;5034370;28;20037;-72
2022/12/24 00:16:05;;;;;;;248.55;127.13;;;2.20;99.90;;;;;;5042671;28;20041;-69
2022/12/24 00:18:32;;;;;;;252.38;126.55;;;2.10;99.90;;;;;;5037312;28;20049;-74
2022/12/24 00:21:06;;;;;;;242.27;122.55;;;2.20;99.90;;;;;;5030120;28;20411;-74
2022/12/24 00:23:35;;;;;;;225.77;119.55;;;2.10;99.90;;;;;;5036586;28;20405;-67
2022/12/24 00:26:03;;;;;;;232.07;118.10;;;2.10;99.90;;;;;;5013174;28;20050;-69
2022/12/24 00:28:30;;;;;;;235.73;117.45;;;2.30;99.90;;;;;;5037176;28;20049;-69
2022/12/24 00:30:58;;;;;;;214.30;112.05;;;2.40;99.90;;;;;;5017055;28;20541;-69
2022/12/24 00:33:25;;;;;;;212.10;109.85;;;2.40;99.90;;;;;;5015592;28;20041;-74
2022/12/24 00:35:52;;;;;;;215.05;109.43;;;2.30;99.90;;;;;;5035461;28;20502;-70
2022/12/24 00:38:20;;;;;;;212.18;106.25;;;2.10;99.90;;;;;;5032959;28;20548;-72
2022/12/24 00:40:47;;;;;;;201.02;106.55;;;2.20;99.90;;;;;;5034228;28;20034;-69
2022/12/24 00:43:14;;;;;;;196.60;105.95;;;2.30;99.90;;;;;;5033751;28;20083;-69
2022/12/24 00:45:42;;;;;;;199.15;100.47;;;2.20;99.90;;;;;;5033799;28;20400;-70
2022/12/24 00:48:10;;;;;;;183.43;99.70;;;2.20;99.90;;;;;;5033823;28;20045;-73
2022/12/24 00:50:37;;;;;;;187.48;99.00;;;2.30;99.90;;;;;;5017811;28;20394;-72
2022/12/24 00:53:05;;;;;;;201.23;95.68;;;2.30;99.90;;;;;;5013888;28;20073;-70
2022/12/24 00:55:32;;;;;;;175.18;91.00;;;2.30;99.90;;;;;;5013856;28;20056;-73
2022/12/24 00:57:59;;;;;;;176.43;94.60;;;2.20;99.90;;;;;;5014361;28;20058;-69
2022/12/24 01:00:26;;;;;;;179.38;94.07;;;2.20;99.90;;;;;;5023260;28;20084;-71
2022/12/24 01:02:54;;;;;;;191.15;98.88;;;2.20;99.90;;;;;;5047450;28;20492;-71
2022/12/24 01:05:22;;;;;;;211.48;104.63;;;2.10;99.90;;;;;;5021118;28;20401;-69
2022/12/24 01:07:49;;;;;;;213.55;107.30;;;2.10;99.90;;;;;;4980212;28;20108;-73
2022/12/24 01:10:19;;;;;;;223.48;108.70;;;2.10;99.90;;;;;;5013960;28;20041;-74
2022/12/24 01:12:46;;;;;;;220.43;108.85;;;2.20;99.90;;;;;;5013548;28;20432;-70
2022/12/24 01:15:14;;;;;;;205.48;103.57;;;2.20;99.90;;;;;;5013188;28;20056;-73
2022/12/24 01:17:41;;;;;;;196.73;101.78;;;2.30;99.90;;;;;;5013416;28;20404;-73
2022/12/24 01:20:14;;;;;;;183.10;95.72;;;2.40;99.90;;;;;;4995889;28;20046;-68
2022/12/24 01:22:41;;;;;;;184.48;97.20;;;2.30;99.90;;;;;;5013241;28;20104;-72
2022/12/24 01:25:08;;;;;;;189.63;99.25;;;2.30;99.90;;;;;;5013250;28;20464;-73
2022/12/24 01:27:36;;;;;;;198.77;101.43;;;2.40;99.90;;;;;;5013055;28;20096;-71
2022/12/24 01:30:07;;;;;;;209.75;108.00;;;2.40;99.90;;;;;;5013394;28;20037;-71
2022/12/24 01:32:34;;;;;;;204.57;101.40;;;2.50;99.90;;;;;;5012819;28;20042;-74
2022/12/24 01:35:02;;;;;;;186.40;96.15;;;2.40;99.90;;;;;;5013125;28;20042;-70
2022/12/24 01:37:29;;;;;;;186.60;95.70;;;2.40;99.90;;;;;;5012578;28;20398;-71
2022/12/24 01:43:22;;;;;;;185.52;91.93;;;2.40;99.90;;;;;;5013333;28;20053;-73
2022/12/24 01:45:55;;;;;;;183.75;95.60;;;2.40;99.90;;;;;;5018109;28;20064;-69
2022/12/24 01:48:36;;;;;;;187.27;96.97;;;2.40;99.90;;;;;;5005778;28;20049;-69
2022/12/24 01:51:28;;;;;;;180.80;92.00;;;2.40;99.90;;;;;;5033372;28;20057;-74
2022/12/24 01:54:06;;;;;;;170.98;91.97;;;2.40;99.90;;;;;;5032660;28;20072;-73
2022/12/24 01:56:45;;;;;;;184.23;93.53;;;2.40;99.90;;;;;;5032384;28;20403;-74
2022/12/24 01:59:16;;;;;;;184.77;90.43;;;2.40;99.90;;;;;;5014969;28;20041;-72
2022/12/24 02:01:44;;;;;;;185.98;91.88;;;2.40;99.90;;;;;;5032663;28;20072;-70
2022/12/24 02:04:24;;;;;;;178.35;91.60;;;2.40;99.90;;;;;;5032428;28;20053;-71
2022/12/24 02:06:51;;;;;;;183.98;93.38;;;2.40;99.90;;;;;;5032891;28;20515;-70
2022/12/24 02:09:23;;;;;;;185.27;92.00;;;2.40;99.90;;;;;;5032539;28;20097;-70
2022/12/24 02:11:51;;;;;;;180.07;91.45;;;2.40;99.90;;;;;;5032312;28;20598;-69
2022/12/24 02:14:19;;;;;;;183.63;92.72;;;2.30;99.90;;;;;;5031934;28;20052;-68
2022/12/24 02:17:07;;;;;;;195.00;91.65;;;2.20;99.90;;;;;;5032295;28;20042;-73
2022/12/24 02:19:56;;;;;;;192.30;92.43;;;2.10;99.90;;;;;;5032641;28;20050;-69
2022/12/24 02:22:49;;;;;;;171.70;88.88;;;2.10;99.90;;;;;;5031694;28;20087;-69
2022/12/24 02:25:25;;;;;;;182.60;90.25;;;2.10;99.90;;;;;;5032474;28;20049;-70
2022/12/24 02:28:17;;;;;;;171.93;88.18;;;2.20;99.90;;;;;;5032151;28;20484;-69
2022/12/24 02:30:52;;;;;;;177.95;86.50;;;2.10;99.90;;;;;;5031963;28;20116;-70
2022/12/24 02:33:32;;;;;;;185.13;90.35;;;2.30;99.90;;;;;;5031965;28;20054;-68
2022/12/24 02:36:02;;;;;;;193.25;89.97;;;2.20;99.90;;;;;;5032438;28;20463;-69
2022/12/24 02:39:07;;;;;;;176.15;87.63;;;2.00;99.90;;;;;;5032232;28;20041;-72
2022/12/24 02:44:32;;;;;;;181.50;85.28;;;2.10;99.90;;;;;;5032259;28;20473;-71
2022/12/24 02:47:01;;;;;;;167.65;84.75;;;2.20;99.90;;;;;;5031930;28;20042;-70
2022/12/24 02:49:28;;;;;;;177.88;87.25;;;2.40;99.90;;;;;;5036049;28;20129;-72
2022/12/24 02:51:58;;;;;;;187.05;87.82;;;2.30;99.90;;;;;;5035757;28;20041;-68
2022/12/24 02:54:25;;;;;;;177.75;87.07;;;2.30;99.90;;;;;;5036066;28;20049;-70
2022/12/24 02:57:23;;;;;;;175.77;86.75;;;2.20;99.90;;;;;;5035797;28;20433;-69
2022/12/24 03:00:03;;;;;;;177.63;88.70;;;2.10;99.90;;;;;;5035287;28;20076;-71
2022/12/24 03:02:54;;;;;;;223.18;92.13;;;2.00;99.90;;;;;;5035672;28;20107;-68
2022/12/24 03:05:27;;;;;;;171.32;86.65;;;1.60;99.90;;;;;;5035732;28;20051;-69
2022/12/24 03:08:01;;;;;;;185.02;89.47;;;1.50;99.90;;;;;;5035547;28;20048;-70
2022/12/24 03:10:46;;;;;;;183.85;88.38;;;1.70;99.90;;;;;;5035751;28;20119;-70
2022/12/24 03:13:16;;;;;;;175.52;90.20;;;1.60;99.90;;;;;;5035244;28;20120;-68
2022/12/24 03:15:44;;;;;;;180.23;91.77;;;1.80;99.90;;;;;;5035957;28;20076;-70
2022/12/24 03:18:14;;;;;;;192.40;94.72;;;2.00;99.90;;;;;;5035443;28;20289;-69
2022/12/24 03:20:55;;;;;;;177.45;90.68;;;2.10;99.90;;;;;;5018301;28;20179;-68
2022/12/24 03:23:22;;;;;;;178.65;91.80;;;2.10;99.90;;;;;;5035014;28;20041;-70
2022/12/24 03:25:49;;;;;;;186.10;91.15;;;2.10;99.90;;;;;;5035426;28;20041;-67
2022/12/24 03:28:18;;;;;;;195.30;94.13;;;2.20;99.90;;;;;;5035200;28;20037;-71
2022/12/24 03:30:47;;;;;;;188.23;95.60;;;2.10;99.90;;;;;;5035056;28;20104;-70
2022/12/24 03:33:15;;;;;;;192.85;93.32;;;2.20;99.90;;;;;;5034858;28;20045;-69
2022/12/24 03:35:43;;;;;;;194.32;92.70;;;2.20;99.90;;;;;;5035237;28;20107;-70
2022/12/24 03:38:10;;;;;;;176.85;91.25;;;2.10;99.90;;;;;;5035178;28;20041;-69
2022/12/24 03:40:37;;;;;;;183.20;93.45;;;1.90;99.90;;;;;;5035153;28;20386;-69
2022/12/24 03:43:04;;;;;;;183.13;91.40;;;2.10;99.90;;;;;;5034870;28;20076;-68
2022/12/24 03:45:31;;;;;;;180.43;92.43;;;2.20;99.90;;;;;;5034647;28;20183;-73
2022/12/24 03:47:59;;;;;;;178.35;88.93;;;2.10;99.90;;;;;;5017920;28;20147;-70
2022/12/24 03:50:26;;;;;;;189.98;92.20;;;1.90;99.90;;;;;;5034726;28;20084;-70
2022/12/24 03:52:54;;;;;;;176.05;87.88;;;1.90;99.90;;;;;;5034662;28;20037;-69
2022/12/24 03:55:22;;;;;;;189.23;87.32;;;1.90;99.90;;;;;;5035121;28;20069;-70
2022/12/24 03:57:49;;;;;;;190.02;90.05;;;1.90;99.90;;;;;;5034747;28;20111;-68
2022/12/24 04:00:17;;;;;;;184.52;89.90;;;1.90;99.90;;;;;;5034044;28;20120;-69
2022/12/24 04:02:44;;;;;;;177.75;89.78;;;1.90;99.90;;;;;;5033252;28;20554;-72
2022/12/24 04:05:17;;;;;;;179.68;90.53;;;1.90;99.90;;;;;;5034659;28;20115;-67
2022/12/24 04:07:44;;;;;;;180.15;86.70;;;1.90;99.90;;;;;;5033639;28;20099;-68
2022/12/24 04:10:13;;;;;;;182.13;87.38;;;1.90;99.90;;;;;;5017654;28;20068;-68
2022/12/24 04:12:40;;;;;;;182.75;86.78;;;1.90;99.90;;;;;;5034213;28;20069;-70
2022/12/24 04:15:10;;;;;;;173.00;85.00;;;1.90;99.90;;;;;;5034429;28;20473;-70
2022/12/24 04:17:37;;;;;;;167.77;87.88;;;2.00;99.90;;;;;;5034618;28;20049;-68
2022/12/24 04:20:05;;;;;;;186.13;89.53;;;2.10;99.90;;;;;;5034275;28;20071;-69
2022/12/24 04:22:33;;;;;;;204.20;91.20;;;2.20;99.90;;;;;;5033966;28;20049;-71
2022/12/24 04:25:00;;;;;;;188.35;89.40;;;2.20;99.90;;;;;;5034667;28;20395;-69
2022/12/24 04:27:27;;;;;;;197.02;91.72;;;2.20;99.90;;;;;;5033765;28;20073;-68
2022/12/24 04:29:56;;;;;;;192.23;90.28;;;2.10;99.90;;;;;;5034017;28;20063;-68
2022/12/24 04:32:26;;;;;;;200.43;86.40;;;2.10;99.90;;;;;;5034092;28;20099;-69
2022/12/24 04:34:54;;;;;;;183.13;90.55;;;2.10;99.90;;;;;;5033979;28;20038;-69
2022/12/24 04:37:21;;;;;;;190.32;89.47;;;2.10;99.90;;;;;;5034132;28;20076;-69
2022/12/24 04:39:49;;;;;;;207.60;88.93;;;1.90;99.90;;;;;;5032718;28;20053;-73
2022/12/24 04:42:16;;;;;;;190.98;91.80;;;1.90;99.90;;;;;;5015862;28;20551;-73
2022/12/24 04:44:43;;;;;;;191.73;90.30;;;2.00;99.90;;;;;;5032733;28;20468;-69
2022/12/24 04:47:11;;;;;;;191.05;89.65;;;2.00;99.90;;;;;;5033962;28;20037;-69
2022/12/24 04:49:38;;;;;;;186.30;86.72;;;1.90;99.90;;;;;;5033465;28;20050;-69
2022/12/24 04:52:05;;;;;;;178.05;84.35;;;1.80;99.90;;;;;;5033804;28;20099;-70
2022/12/24 04:54:35;;;;;;;183.40;89.03;;;1.80;99.90;;;;;;5033885;28;20151;-72
2022/12/24 04:57:03;;;;;;;198.45;92.25;;;1.80;99.90;;;;;;5033300;28;20074;-69
2022/12/24 04:59:30;;;;;;;225.80;92.43;;;1.70;99.90;;;;;;5033818;28;20151;-68
2022/12/24 05:01:57;;;;;;;188.50;90.65;;;1.60;99.90;;;;;;5015919;28;20048;-70
2022/12/24 05:04:24;;;;;;;200.00;90.50;;;1.60;99.90;;;;;;5033505;28;20132;-68
2022/12/24 05:06:52;;;;;;;201.90;87.15;;;1.60;99.90;;;;;;5032102;28;20049;-70
2022/12/24 05:09:19;;;;;;;186.23;86.32;;;1.50;99.90;;;;;;5033283;28;20124;-68
2022/12/24 05:11:49;;;;;;;193.13;84.03;;;1.50;99.90;;;;;;5032152;28;20041;-68
2022/12/24 05:14:16;;;;;;;173.93;78.28;;;1.50;99.90;;;;;;4999563;28;20138;-70
2022/12/24 05:16:43;;;;;;;168.32;78.40;;;1.50;99.90;;;;;;5002337;28;20393;-67
2022/12/24 05:19:11;;;;;;;187.43;79.03;;;1.60;99.90;;;;;;5000181;28;20050;-68
2022/12/24 05:21:41;;;;;;;164.30;77.28;;;1.50;99.90;;;;;;5015981;28;20038;-73
2022/12/24 05:26:57;;;;;;;164.63;76.43;;;1.50;99.90;;;;;;5032953;28;20397;-67
2022/12/24 05:29:25;;;;;;;167.00;76.60;;;1.40;99.90;;;;;;5033476;28;20644;-68
2022/12/24 05:32:00;;;;;;;161.65;78.45;;;1.50;99.90;;;;;;4998910;28;20049;-68
2022/12/24 05:34:30;;;;;;;163.52;77.43;;;1.50;99.90;;;;;;5016213;28;20053;-68
2022/12/24 05:37:00;;;;;;;162.07;77.50;;;1.50;99.90;;;;;;5032665;28;20034;-70
2022/12/24 05:39:28;;;;;;;165.90;77.25;;;1.50;99.90;;;;;;4999260;28;20467;-68
2022/12/24 05:41:55;;;;;;;174.57;76.40;;;1.50;99.90;;;;;;4998981;28;20091;-69
2022/12/24 05:44:22;;;;;;;166.32;78.85;;;1.40;99.90;;;;;;5033356;28;20388;-69
2022/12/24 05:46:50;;;;;;;160.25;78.28;;;1.50;99.90;;;;;;5032508;28;20037;-72
2022/12/24 05:49:17;;;;;;;177.10;77.63;;;1.50;99.90;;;;;;5033052;28;20046;-69
2022/12/24 05:51:45;;;;;;;164.35;78.78;;;1.60;99.90;;;;;;5032075;28;20030;-69
2022/12/24 05:54:12;;;;;;;162.15;76.47;;;1.60;99.90;;;;;;5032759;28;20123;-69
2022/12/24 05:56:40;;;;;;;158.32;76.80;;;1.60;99.90;;;;;;5014426;28;20060;-68
2022/12/24 05:59:07;;;;;;;144.13;68.75;;;1.60;99.90;;;;;;5031260;28;20127;-70
2022/12/24 06:01:36;;;;;;;155.60;70.00;;;1.50;99.90;;;;;;5014941;28;20069;-70
2022/12/24 06:04:04;;;;;;;165.43;71.05;;;1.60;99.90;;;;;;5032733;28;20076;-69
2022/12/24 06:06:31;;;;;;;135.50;67.40;;;1.60;99.90;;;;;;5032103;28;20414;-69
2022/12/24 06:09:13;;;;;;;144.30;68.68;;;1.60;99.90;;;;;;5032252;28;20052;-73
2022/12/24 06:11:51;;;;;;;145.13;69.20;;;1.70;99.90;;;;;;5030970;28;20463;-71
2022/12/24 06:14:18;;;;;;;149.88;68.43;;;1.90;99.90;;;;;;5032994;28;20544;-72
2022/12/24 06:16:46;;;;;;;141.80;67.30;;;1.90;99.90;;;;;;5031933;28;20041;-68
2022/12/24 06:19:13;;;;;;;145.00;68.40;;;1.90;99.90;;;;;;5031018;28;20073;-71
2022/12/24 06:21:40;;;;;;;148.68;66.97;;;1.80;99.90;;;;;;5032135;28;20386;-70
2022/12/24 06:24:07;;;;;;;136.63;64.90;;;1.70;99.90;;;;;;5038671;28;20500;-68
2022/12/24 06:26:35;;;;;;;134.07;64.85;;;1.60;99.90;;;;;;5038529;28;20115;-67
2022/12/24 06:29:02;;;;;;;153.63;68.70;;;1.60;99.90;;;;;;5037788;28;20061;-70
2022/12/24 06:31:30;;;;;;;154.95;67.80;;;1.60;99.90;;;;;;5038840;28;20045;-69
2022/12/24 06:33:59;;;;;;;149.48;67.75;;;1.70;99.90;;;;;;5038797;28;20497;-69
2022/12/24 06:36:27;;;;;;;139.05;68.13;;;1.80;99.90;;;;;;5038582;28;20068;-71
2022/12/24 06:38:57;;;;;;;147.32;68.90;;;2.00;99.90;;;;;;5038627;28;20046;-68
2022/12/24 06:41:25;;;;;;;138.75;66.45;;;2.00;99.90;;;;;;5004877;28;20053;-70
2022/12/24 06:43:52;;;;;;;146.98;65.22;;;1.90;99.90;;;;;;5039258;28;20041;-69
2022/12/24 06:46:23;;;;;;;147.43;67.03;;;1.80;99.90;;;;;;5038879;28;20056;-70
2022/12/24 06:48:50;;;;;;;;;;;1.80;99.90;;;;;;5039215;28;20037;-71
2022/12/24 06:51:19;;;;;;;138.90;63.45;;;2.00;99.90;;;;;;5020924;28;19921;-70
2022/12/24 06:53:49;;;;;;;149.82;67.78;;;2.10;99.90;;;;;;5038609;28;20042;-70
2022/12/24 06:56:17;;;;;;;;;;;2.20;99.90;;;;;;5038912;28;20041;-70
2022/12/24 06:58:50;;;;;;;125.88;58.60;;;2.30;99.90;;;;;;5039020;28;19944;-70
2022/12/24 07:01:18;;;;;;;127.03;59.20;;;2.30;99.90;;;;;;5020421;28;20049;-69
2022/12/24 07:03:46;;;;;;;129.35;62.63;;;2.40;99.90;;;;;;5005190;28;20163;-70
2022/12/24 07:06:27;;;;;;;134.90;61.60;;;2.40;99.90;;;;;;5004999;28;20049;-70
2022/12/24 07:08:56;;;;;;;134.75;63.97;;;2.30;99.90;;;;;;5038782;28;20049;-68
2022/12/24 07:11:25;;;;;;;135.40;66.63;;;2.30;99.90;;;;;;5020734;28;20119;-69
2022/12/24 07:13:52;;;;;;;133.70;64.25;;;2.30;99.90;;;;;;5021186;28;20053;-69
2022/12/24 07:16:20;;;;;;;135.48;66.50;;;2.40;99.90;;;;;;5021006;28;20432;-69
2022/12/24 07:18:48;;;;;;;135.90;67.45;;;2.30;99.90;;;;;;5038624;28;20457;-73
2022/12/24 07:21:20;;;;;;;158.75;67.20;;;2.30;99.90;;;;;;5037003;28;20045;-71
2022/12/24 07:23:50;;;;;;;133.32;68.03;;;2.40;99.90;;;;;;5005774;28;20049;-72
2022/12/24 07:26:22;;;;;;;143.65;69.85;;;2.50;99.90;;;;;;5036910;28;20107;-73
2022/12/24 07:28:59;;;;;;;143.20;70.38;;;2.40;99.90;;;;;;5005731;28;20053;-71
2022/12/24 07:31:27;;;;;;;165.73;76.50;;;2.40;99.90;;;;;;5026100;28;20128;-71
2022/12/24 07:34:00;;;;;;;160.77;74.85;;;2.20;99.90;;;;;;5023909;28;20048;-75
2022/12/24 07:36:27;;;;;;;148.00;68.70;;;2.00;99.90;;;;;;5037275;28;20065;-72
2022/12/24 07:38:55;;;;;;;146.02;67.38;;;1.90;99.90;;;;;;5035468;28;20049;-70
2022/12/24 07:41:23;;;;;;;164.40;68.57;;;2.00;99.90;;;;;;5041965;28;20067;-71
2022/12/24 07:43:50;;;;;;;153.57;70.30;;;1.90;99.90;;;;;;5024436;28;20385;-71
2022/12/24 07:46:17;;;;;;;162.10;71.22;;;2.00;99.90;;;;;;5040942;28;20045;-70
2022/12/24 07:48:45;;;;;;;161.48;73.43;;;2.10;99.90;;;;;;5042721;28;20029;-70
2022/12/24 07:51:12;;;;;;;167.90;74.55;;;2.20;99.90;;;;;;5038433;28;20041;-70
2022/12/24 07:53:46;;;;;;;160.35;74.30;;;2.20;99.90;;;;;;5025586;28;20502;-70
2022/12/24 07:56:15;;;;;;;163.82;74.03;;;2.40;99.90;;;;;;5044337;28;20033;-69
2022/12/24 07:58:43;;;;;;;160.73;73.70;;;2.50;99.90;;;;;;5048042;28;20499;-69
2022/12/24 08:01:10;;;;;;;164.00;74.93;;;2.60;99.90;;;;;;5040903;28;20044;-69
2022/12/24 08:03:38;;;;;;;165.07;75.75;;;2.60;99.90;;;;;;5038632;28;20041;-70
2022/12/24 08:06:06;;;;;;;181.48;79.03;;;2.70;99.90;;;;;;5042636;28;20041;-71
2022/12/24 08:08:33;;;;;;;189.63;81.65;;;2.70;99.90;;;;;;5054539;28;20404;-70
2022/12/24 08:11:05;;;;;;;200.63;83.80;;;2.60;99.90;;;;;;5054362;28;20116;-70
2022/12/24 08:13:34;;;;;;;198.23;83.15;;;2.70;99.90;;;;;;5037636;28;20231;-71
2022/12/24 08:16:03;;;;;;;177.52;81.38;;;2.70;99.90;;;;;;5053220;28;20048;-70
2022/12/24 08:18:32;;;;;;;177.60;83.68;;;2.80;99.90;;;;;;5053074;28;20106;-70
2022/12/24 08:20:59;;;;;;;180.25;83.97;;;2.90;99.90;;;;;;5054364;28;20146;-70
2022/12/24 08:23:27;;;;;;;190.75;86.38;;;2.90;99.90;;;;;;5054210;28;20400;-70
2022/12/24 08:25:54;;;;;;;179.48;82.82;;;2.90;99.90;;;;;;5054285;28;20045;-71
2022/12/24 08:28:21;;;;;;;169.60;83.07;;;2.90;99.90;;;;;;5054020;28;20056;-70
2022/12/24 08:30:50;;;;;;;165.88;80.80;;;2.90;99.90;;;;;;5054247;28;20506;-70
2022/12/24 08:33:21;;;;;;;167.57;78.50;;;3.00;99.90;;;;;;5036485;28;20079;-69
2022/12/24 08:35:49;;;;;;;168.25;80.03;;;3.00;99.90;;;;;;5054356;28;20044;-72
2022/12/24 08:38:17;;;;;;;159.70;79.95;;;3.10;99.90;;;;;;5047153;28;20041;-68
2022/12/24 08:40:49;;;;;;;149.98;76.25;;;2.90;99.90;;;;;;5041722;28;20045;-69
2022/12/24 08:43:17;;;;;;;155.32;76.60;;;2.80;99.90;;;;;;5042533;28;20037;-69
2022/12/24 08:45:46;;;;;;;151.75;76.07;;;2.70;99.90;;;;;;5043387;28;20708;-71
2022/12/24 08:48:14;;;;;;;150.80;73.83;;;2.70;99.90;;;;;;5041844;28;20033;-72
2022/12/24 08:50:43;;;;;;;189.35;90.88;;;2.90;99.90;;;;;;5041680;28;20037;-72
2022/12/24 08:53:10;;;;;;;366.52;164.55;;;3.10;99.90;;;;;;5034998;28;20041;-72
2022/12/24 08:55:38;;;;;;;317.92;147.52;;;3.40;99.90;;;;;;5036931;28;20483;-70
2022/12/24 08:58:05;;;;;;;244.98;116.22;;;3.70;99.90;;;;;;5034829;28;20052;-71
2022/12/24 09:00:34;;;;;;;289.63;133.18;;;3.50;99.90;;;;;;5036673;28;20061;-72
2022/12/24 09:03:01;;;;;;;193.55;93.65;;;3.40;99.90;;;;;;5041659;28;20037;-71
2022/12/24 09:05:29;;;;;;;202.02;91.45;;;3.20;99.90;;;;;;5023455;28;20541;-68
2022/12/24 09:08:00;;;;;;;191.60;88.45;;;3.10;99.90;;;;;;5025537;28;20033;-69
2022/12/24 09:10:30;;;;;;;194.73;86.03;;;3.00;99.90;;;;;;5030462;28;20037;-69
2022/12/24 09:12:58;;;;;;;187.98;84.88;;;2.90;99.90;;;;;;5037051;28;20534;-68
2022/12/24 09:15:25;;;;;;;189.50;84.63;;;2.80;99.90;;;;;;5033653;28;20041;-69
2022/12/24 09:17:53;;;;;;;201.73;85.45;;;2.90;99.90;;;;;;5031774;28;20119;-69
2022/12/24 09:20:20;;;;;;;201.77;86.70;;;2.70;99.90;;;;;;5019666;28;20045;-70
2022/12/24 09:22:48;;;;;;;199.77;84.75;;;2.80;99.90;;;;;;5034123;28;20115;-68
2022/12/24 09:25:16;;;;;;;183.82;83.30;;;2.80;99.90;;;;;;5032068;28;20041;-70
2022/12/24 09:27:43;;;;;;;194.85;84.50;;;2.90;99.90;;;;;;5030594;28;20048;-71
2022/12/24 09:30:11;;;;;;;166.60;80.78;;;3.00;99.90;;;;;;5030174;28;20737;-70
2022/12/24 09:32:38;;;;;;;178.35;80.78;;;2.90;99.90;;;;;;5034041;28;20045;-72
2022/12/24 09:35:07;;;;;;;270.85;123.97;;;2.90;99.90;;;;;;5000336;28;20645;-71
2022/12/24 09:37:43;;;;;;;307.90;139.20;;;3.10;99.90;;;;;;5031452;28;20045;-75
2022/12/24 09:40:24;;;;;;;326.58;146.45;;;3.20;99.90;;;;;;5033384;28;20060;-70
2022/12/24 09:42:54;;;;;;;185.95;85.07;;;3.30;99.90;;;;;;5018438;28;20052;-71
2022/12/24 09:45:31;;;;;;;177.43;84.53;;;3.20;99.90;;;;;;5004555;28;20041;-72
2022/12/24 09:48:20;;;;;;;174.07;79.60;;;3.20;99.90;;;;;;5007195;28;20402;-70
2022/12/24 09:50:53;;;;;;;165.55;78.32;;;3.30;99.90;;;;;;5029384;28;20075;-71
2022/12/24 09:53:34;;;;;;;182.35;79.95;;;3.40;99.90;;;;;;5021427;28;20069;-70
2022/12/24 09:56:11;;;;;;;174.05;78.63;;;3.50;99.90;;;;;;5023166;28;20496;-71
2022/12/24 09:58:49;;;;;;;170.85;80.72;;;3.50;99.90;;;;;;5002550;28;20053;-73
2022/12/24 10:01:19;;;;;;;;;;;3.50;99.90;;;;;;5004242;28;20053;-69
2022/12/24 10:03:47;;;;;;;172.90;76.18;;;3.70;99.90;;;;;;5026037;28;19932;-68
2022/12/24 10:06:17;;;;;;;154.07;74.68;;;3.70;99.90;;;;;;5031665;28;20095;-70
2022/12/24 10:09:09;;;;;;;153.93;76.32;;;3.60;99.90;;;;;;5032563;28;20112;-70
2022/12/24 10:11:54;;;;;;;152.73;74.28;;;3.40;99.90;;;;;;5032201;28;20084;-69
2022/12/24 10:14:52;;;;;;;162.15;74.78;;;3.50;99.90;;;;;;5031852;28;20056;-70
2022/12/24 10:17:25;;;;;;;150.18;74.22;;;3.80;99.90;;;;;;5003697;28;20370;-70
2022/12/24 10:20:31;;;;;;;152.60;71.63;;;4.20;99.90;;;;;;5014958;28;20060;-70
2022/12/24 10:22:58;;;;;;;146.07;70.35;;;4.50;99.90;;;;;;5015382;28;20124;-70
2022/12/24 10:25:32;;;;;;;143.88;72.63;;;4.50;99.90;;;;;;5014419;28;20088;-70
2022/12/24 10:28:02;;;;;;;249.38;117.05;;;4.30;99.90;;;;;;4998894;28;20041;-70
2022/12/24 10:30:33;;;;;;;276.42;140.80;;;4.70;99.90;;;;;;5032652;28;20037;-70
2022/12/24 10:33:01;;;;;;;246.27;125.45;;;5.30;99.90;;;;;;5014594;28;20068;-71
2022/12/24 10:35:39;;;;;;;291.50;144.52;;;5.70;99.90;;;;;;5015537;28;20428;-71
2022/12/24 10:38:09;;;;;;;143.50;79.72;;;5.90;99.90;;;;;;5034452;28;20037;-70
2022/12/24 10:40:43;;;;;;;132.27;68.65;;;6.00;99.90;;;;;;5032323;28;20065;-71
2022/12/24 10:43:23;;;;;;;124.43;61.15;;;6.10;99.90;;;;;;5030836;28;20045;-72
2022/12/24 10:46:00;;;;;;;124.90;65.47;;;6.20;99.90;;;;;;5031955;28;20092;-73
2022/12/24 10:48:29;;;;;;;118.18;63.40;;;6.30;99.90;;;;;;5014664;28;20073;-73
2022/12/24 10:51:02;;;;;;;128.93;67.22;;;6.30;99.90;;;;;;5020424;28;20045;-70
2022/12/24 10:53:48;;;;;;;121.40;65.47;;;6.60;99.90;;;;;;5025224;28;20033;-70
2022/12/24 10:56:20;;;;;;;118.40;66.30;;;7.00;99.90;;;;;;5000271;28;20045;-72
2022/12/24 10:58:54;;;;;;;133.80;66.53;;;7.10;99.90;;;;;;5038203;28;20048;-73
2022/12/24 11:01:45;;;;;;;124.95;65.28;;;7.10;99.90;;;;;;5031313;28;20049;-71
2022/12/24 11:04:19;;;;;;;126.70;69.45;;;6.90;99.90;;;;;;4996985;28;20046;-71
2022/12/24 11:07:05;;;;;;;133.75;71.07;;;7.20;99.90;;;;;;5029372;28;20041;-71
2022/12/24 11:09:35;;;;;;;136.52;71.45;;;7.50;99.90;;;;;;5007016;28;20045;-71
2022/12/24 11:12:14;;;;;;;144.25;73.00;;;7.60;99.90;;;;;;5027532;28;20125;-73
2022/12/24 11:14:41;;;;;;;160.93;77.82;;;7.80;99.90;;;;;;5004345;28;20045;-70
2022/12/24 11:17:29;;;;;;;167.63;78.70;;;7.50;99.90;;;;;;5031621;28;20500;-71
2022/12/24 11:20:07;;;;;;;160.60;78.55;;;7.50;99.90;;;;;;5026842;28;20052;-70
2022/12/24 11:22:34;;;;;;;160.07;81.30;;;7.70;99.90;;;;;;5026694;28;20042;-72
2022/12/24 11:25:07;;;;;;;164.75;83.13;;;7.80;99.90;;;;;;5003563;28;20052;-70
2022/12/24 11:27:46;;;;;;;161.18;81.45;;;8.10;99.90;;;;;;5026660;28;20056;-73
2022/12/24 11:30:18;;;;;;;173.25;83.65;;;7.90;99.90;;;;;;5020318;28;20041;-72
2022/12/24 11:33:09;;;;;;;160.15;82.75;;;7.90;99.90;;;;;;5007434;28;20111;-84
2022/12/24 11:35:46;;;;;;;168.82;79.13;;;8.30;99.90;;;;;;5030036;28;20042;-84
2022/12/24 11:38:24;;;;;;;151.50;74.57;;;8.60;99.90;;;;;;5032622;28;20045;-74
2022/12/24 11:41:19;;;;;;;145.45;75.85;;;8.60;99.90;;;;;;5016607;28;20046;-74
2022/12/24 11:43:50;;;;;;;148.18;71.18;;;8.70;99.90;;;;;;5018520;28;20052;-73
2022/12/24 11:46:40;;;;;;;135.10;70.75;;;8.90;99.90;;;;;;5035494;28;20049;-74
2022/12/24 11:49:11;;;;;;;;;;;8.90;99.90;;;;;;5050160;28;20052;-78
2022/12/24 11:51:39;;;;;;;;;;;8.90;99.90;;;;;;5034384;28;19925;-84
2022/12/24 11:54:25;;;;;;;120.65;60.17;;;8.90;99.90;;;;;;5013283;28;19928;-85
2022/12/24 11:56:56;;;;;;;141.07;70.65;;;9.30;99.90;;;;;;5029485;28;20041;-72
2022/12/24 11:59:35;;;;;;;148.95;72.80;;;9.00;99.90;;;;;;5032374;28;20041;-71
2022/12/24 12:02:32;;;;;;;140.93;72.32;;;8.90;99.90;;;;;;5007656;28;20073;-81
2022/12/24 12:05:08;;;;;;;136.77;70.50;;;9.10;99.90;;;;;;5031946;28;20038;-73
2022/12/24 12:07:41;;;;;;;132.93;71.15;;;8.90;99.90;;;;;;5029564;28;20045;-74
2022/12/24 12:10:15;;;;;;;134.75;69.13;;;8.70;99.90;;;;;;5009355;28;20550;-72
2022/12/24 12:12:55;;;;;;;132.38;69.45;;;8.50;99.90;;;;;;5003803;28;20049;-79
2022/12/24 12:15:27;;;;;;;144.35;69.80;;;8.60;99.90;;;;;;5021638;28;20041;-72
2022/12/24 12:18:24;;;;;;;129.68;65.65;;;8.90;99.90;;;;;;5037849;28;20065;-75
2022/12/24 12:21:05;;;;;;;122.75;63.33;;;9.30;99.90;;;;;;5034504;28;20420;-72
2022/12/24 12:23:53;;;;;;;116.47;64.20;;;9.40;99.90;;;;;;5030019;28;20048;-73
2022/12/24 12:26:30;;;;;;;116.75;63.22;;;9.40;99.90;;;;;;5023378;28;20088;-73
2022/12/24 12:29:20;;;;;;;117.78;62.60;;;9.40;99.90;;;;;;5012960;28;20046;-78
2022/12/24 12:31:56;;;;;;;119.45;65.35;;;9.30;99.90;;;;;;5043098;28;20402;-72
2022/12/24 12:35:18;;;;;;;136.00;71.97;;;9.30;99.90;;;;;;4994281;28;20045;-75
2022/12/24 12:38:06;;;;;;;139.27;76.07;;;9.10;99.90;;;;;;5020078;28;20049;-73
2022/12/24 12:41:05;;;;;;;143.23;77.65;;;9.20;99.90;;;;;;5033101;28;20489;-73
2022/12/24 12:43:58;;;;;;;138.07;79.53;;;9.60;99.90;;;;;;5033706;28;20099;-72
2022/12/24 12:47:06;;;;;;;147.18;81.10;;;9.70;99.90;;;;;;5005782;28;20416;-71
2022/12/24 12:49:52;;;;;;;142.25;78.63;;;9.80;99.90;;;;;;5005620;28;20133;-73
2022/12/24 12:52:32;;;;;;;144.07;80.00;;;9.70;99.90;;;;;;5021172;28;20045;-71
2022/12/24 12:55:02;;;;;;;150.30;81.13;;;9.60;99.90;;;;;;5034258;28;20038;-83
2022/12/24 12:57:32;;;;;;;;;;;9.50;99.90;;;;;;5010322;28;20412;-70
2022/12/24 13:00:11;;;;;;;144.07;75.85;;;9.20;99.90;;;;;;5032975;28;19932;-77
2022/12/24 13:02:50;;;;;;;133.77;75.50;;;9.20;99.90;;;;;;5030046;28;20459;-69